sensor_id;sensor_type;location;lat;lon;timestamp;P1;durP1;ratioP1;P2;durP2;ratioP2
21777;SDS011;11050;52.222;20.916;2022-10-16T00:01:15;19.70;;;12.88;;
21777;SDS011;11050;52.222;20.916;2022-10-16T00:03:44;18.88;;;13.35;;
21777;SDS011;11050;52.222;20.916;2022-10-16T00:06:11;16.45;;;12.45;;
21777;SDS011;11050;52.222;20.916;2022-10-16T00:08:38;15.43;;;12.00;;
21777;SDS011;11050;52.222;20.916;2022-10-16T00:11:06;17.15;;;11.55;;
21777;SDS011;11050;52.222;20.916;2022-10-16T00:13:42;18.27;;;12.05;;
21777;SDS011;11050;52.222;20.916;2022-10-16T00:16:10;19.40;;;11.48;;
21777;SDS011;11050;52.222;20.916;2022-10-16T00:18:38;15.13;;;11.82;;
21777;SDS011;11050;52.222;20.916;2022-10-16T00:21:08;19.15;;;11.93;;
21777;SDS011;11050;52.222;20.916;2022-10-16T00:23:38;18.50;;;11.23;;
21777;SDS011;11050;52.222;20.916;2022-10-16T00:26:06;14.93;;;11.23;;
21777;SDS011;11050;52.222;20.916;2022-10-16T00:28:36;14.27;;;10.88;;
21777;SDS011;11050;52.222;20.916;2022-10-16T00:31:03;14.23;;;11.20;;
21777;SDS011;11050;52.222;20.916;2022-10-16T00:33:35;17.20;;;10.82;;
21777;SDS011;11050;52.222;20.916;2022-10-16T00:36:04;15.30;;;11.50;;
21777;SDS011;11050;52.222;20.916;2022-10-16T00:38:31;14.70;;;11.52;;
21777;SDS011;11050;52.222;20.916;2022-10-16T00:40:57;16.55;;;12.65;;
21777;SDS011;11050;52.222;20.916;2022-10-16T00:43:33;19.88;;;12.35;;
21777;SDS011;11050;52.222;20.916;2022-10-16T00:49:03;21.52;;;15.32;;
21777;SDS011;11050;52.222;20.916;2022-10-16T00:51:37;20.63;;;14.35;;
21777;SDS011;11050;52.222;20.916;2022-10-16T00:54:14;23.15;;;15.00;;
21777;SDS011;11050;52.222;20.916;2022-10-16T00:56:53;21.83;;;15.30;;
21777;SDS011;11050;52.222;20.916;2022-10-16T00:59:25;21.00;;;14.25;;
21777;SDS011;11050;52.222;20.916;2022-10-16T01:02:00;25.60;;;15.68;;
21777;SDS011;11050;52.222;20.916;2022-10-16T01:04:28;21.65;;;15.73;;
21777;SDS011;11050;52.222;20.916;2022-10-16T01:07:12;21.23;;;14.38;;
21777;SDS011;11050;52.222;20.916;2022-10-16T01:15:55;20.02;;;14.20;;
21777;SDS011;11050;52.222;20.916;2022-10-16T01:18:39;20.73;;;14.48;;
21777;SDS011;11050;52.222;20.916;2022-10-16T01:21:16;20.30;;;14.73;;
21777;SDS011;11050;52.222;20.916;2022-10-16T01:29:59;19.80;;;13.90;;
21777;SDS011;11050;52.222;20.916;2022-10-16T01:32:57;20.02;;;14.25;;
21777;SDS011;11050;52.222;20.916;2022-10-16T01:35:37;21.90;;;14.65;;
21777;SDS011;11050;52.222;20.916;2022-10-16T01:40:59;21.25;;;14.43;;
21777;SDS011;11050;52.222;20.916;2022-10-16T01:43:36;22.33;;;15.25;;
21777;SDS011;11050;52.222;20.916;2022-10-16T01:46:11;22.70;;;16.17;;
21777;SDS011;11050;52.222;20.916;2022-10-16T01:48:43;28.33;;;15.52;;
21777;SDS011;11050;52.222;20.916;2022-10-16T01:51:10;22.60;;;15.20;;
21777;SDS011;11050;52.222;20.916;2022-10-16T01:53:41;23.27;;;16.08;;
21777;SDS011;11050;52.222;20.916;2022-10-16T01:56:13;23.13;;;15.15;;
21777;SDS011;11050;52.222;20.916;2022-10-16T01:59:05;25.33;;;16.83;;
21777;SDS011;11050;52.222;20.916;2022-10-16T02:01:36;23.48;;;16.15;;
21777;SDS011;11050;52.222;20.916;2022-10-16T02:04:09;24.75;;;16.13;;
21777;SDS011;11050;52.222;20.916;2022-10-16T02:07:01;22.98;;;15.90;;
21777;SDS011;11050;52.222;20.916;2022-10-16T02:09:27;23.45;;;16.33;;
21777;SDS011;11050;52.222;20.916;2022-10-16T02:11:56;22.75;;;16.05;;
21777;SDS011;11050;52.222;20.916;2022-10-16T02:14:27;23.50;;;15.63;;
21777;SDS011;11050;52.222;20.916;2022-10-16T02:16:54;26.08;;;16.52;;
21777;SDS011;11050;52.222;20.916;2022-10-16T02:19:20;26.27;;;16.70;;
21777;SDS011;11050;52.222;20.916;2022-10-16T02:21:51;23.98;;;17.15;;
21777;SDS011;11050;52.222;20.916;2022-10-16T02:27:33;26.40;;;16.75;;
21777;SDS011;11050;52.222;20.916;2022-10-16T02:33:10;25.88;;;17.25;;
21777;SDS011;11050;52.222;20.916;2022-10-16T02:35:41;26.65;;;17.55;;
21777;SDS011;11050;52.222;20.916;2022-10-16T02:38:11;24.10;;;17.35;;
21777;SDS011;11050;52.222;20.916;2022-10-16T02:40:39;25.13;;;17.10;;
21777;SDS011;11050;52.222;20.916;2022-10-16T02:43:07;23.92;;;16.77;;
21777;SDS011;11050;52.222;20.916;2022-10-16T02:45:34;28.95;;;18.42;;
21777;SDS011;11050;52.222;20.916;2022-10-16T02:48:00;27.88;;;17.50;;
21777;SDS011;11050;52.222;20.916;2022-10-16T02:50:26;25.77;;;16.55;;
21777;SDS011;11050;52.222;20.916;2022-10-16T02:52:52;26.25;;;17.67;;
21777;SDS011;11050;52.222;20.916;2022-10-16T02:55:17;29.77;;;17.95;;
21777;SDS011;11050;52.222;20.916;2022-10-16T02:57:43;25.40;;;17.83;;
21777;SDS011;11050;52.222;20.916;2022-10-16T03:00:10;24.77;;;17.55;;
21777;SDS011;11050;52.222;20.916;2022-10-16T03:02:40;27.02;;;17.63;;
21777;SDS011;11050;52.222;20.916;2022-10-16T03:05:07;27.08;;;18.27;;
21777;SDS011;11050;52.222;20.916;2022-10-16T03:07:34;27.75;;;18.38;;
21777;SDS011;11050;52.222;20.916;2022-10-16T03:09:59;25.05;;;17.50;;
21777;SDS011;11050;52.222;20.916;2022-10-16T03:12:26;26.42;;;18.77;;
21777;SDS011;11050;52.222;20.916;2022-10-16T03:14:53;25.17;;;17.40;;
21777;SDS011;11050;52.222;20.916;2022-10-16T03:17:18;25.20;;;17.25;;
21777;SDS011;11050;52.222;20.916;2022-10-16T03:19:44;28.67;;;18.73;;
21777;SDS011;11050;52.222;20.916;2022-10-16T03:22:10;28.52;;;18.58;;
21777;SDS011;11050;52.222;20.916;2022-10-16T03:24:36;24.48;;;17.65;;
21777;SDS011;11050;52.222;20.916;2022-10-16T03:27:01;25.17;;;16.85;;
21777;SDS011;11050;52.222;20.916;2022-10-16T03:29:27;26.70;;;18.30;;
21777;SDS011;11050;52.222;20.916;2022-10-16T03:31:54;28.42;;;17.63;;
21777;SDS011;11050;52.222;20.916;2022-10-16T03:34:21;27.70;;;18.63;;
21777;SDS011;11050;52.222;20.916;2022-10-16T03:36:47;26.40;;;17.02;;
21777;SDS011;11050;52.222;20.916;2022-10-16T03:39:13;27.50;;;17.67;;
21777;SDS011;11050;52.222;20.916;2022-10-16T03:41:39;25.42;;;17.15;;
21777;SDS011;11050;52.222;20.916;2022-10-16T03:44:05;24.38;;;16.42;;
21777;SDS011;11050;52.222;20.916;2022-10-16T03:46:30;25.48;;;17.67;;
21777;SDS011;11050;52.222;20.916;2022-10-16T03:48:56;26.83;;;17.20;;
21777;SDS011;11050;52.222;20.916;2022-10-16T03:51:22;25.77;;;17.35;;
21777;SDS011;11050;52.222;20.916;2022-10-16T03:53:48;26.83;;;17.65;;
21777;SDS011;11050;52.222;20.916;2022-10-16T03:56:14;24.00;;;17.08;;
21777;SDS011;11050;52.222;20.916;2022-10-16T03:58:39;27.40;;;18.00;;
21777;SDS011;11050;52.222;20.916;2022-10-16T04:01:05;28.77;;;17.60;;
21777;SDS011;11050;52.222;20.916;2022-10-16T04:03:31;27.45;;;17.88;;
21777;SDS011;11050;52.222;20.916;2022-10-16T04:05:57;24.90;;;17.73;;
21777;SDS011;11050;52.222;20.916;2022-10-16T04:08:23;26.00;;;16.92;;
21777;SDS011;11050;52.222;20.916;2022-10-16T04:10:48;25.60;;;16.98;;
21777;SDS011;11050;52.222;20.916;2022-10-16T04:13:14;25.40;;;17.15;;
21777;SDS011;11050;52.222;20.916;2022-10-16T04:15:40;24.60;;;17.00;;
21777;SDS011;11050;52.222;20.916;2022-10-16T04:18:06;25.42;;;18.20;;
21777;SDS011;11050;52.222;20.916;2022-10-16T04:20:32;28.30;;;17.98;;
21777;SDS011;11050;52.222;20.916;2022-10-16T04:22:59;23.70;;;16.75;;
21777;SDS011;11050;52.222;20.916;2022-10-16T04:25:25;22.27;;;17.10;;
21777;SDS011;11050;52.222;20.916;2022-10-16T04:27:52;25.08;;;17.63;;
21777;SDS011;11050;52.222;20.916;2022-10-16T04:30:19;26.52;;;18.73;;
21777;SDS011;11050;52.222;20.916;2022-10-16T04:32:49;29.63;;;18.85;;
21777;SDS011;11050;52.222;20.916;2022-10-16T04:35:17;27.92;;;17.88;;
21777;SDS011;11050;52.222;20.916;2022-10-16T04:37:44;25.88;;;17.50;;
21777;SDS011;11050;52.222;20.916;2022-10-16T04:40:10;26.60;;;16.98;;
21777;SDS011;11050;52.222;20.916;2022-10-16T04:42:36;26.83;;;18.17;;
21777;SDS011;11050;52.222;20.916;2022-10-16T04:45:02;27.65;;;18.08;;
21777;SDS011;11050;52.222;20.916;2022-10-16T04:47:30;27.98;;;17.48;;
21777;SDS011;11050;52.222;20.916;2022-10-16T04:49:55;25.30;;;17.70;;
21777;SDS011;11050;52.222;20.916;2022-10-16T04:52:21;23.65;;;17.48;;
21777;SDS011;11050;52.222;20.916;2022-10-16T04:54:49;29.60;;;17.80;;
21777;SDS011;11050;52.222;20.916;2022-10-16T04:57:16;28.23;;;19.30;;
21777;SDS011;11050;52.222;20.916;2022-10-16T04:59:42;26.45;;;18.00;;
21777;SDS011;11050;52.222;20.916;2022-10-16T05:02:08;29.38;;;18.58;;
21777;SDS011;11050;52.222;20.916;2022-10-16T05:04:34;28.60;;;18.95;;
21777;SDS011;11050;52.222;20.916;2022-10-16T05:06:59;26.38;;;18.33;;
21777;SDS011;11050;52.222;20.916;2022-10-16T05:09:25;28.27;;;18.90;;
21777;SDS011;11050;52.222;20.916;2022-10-16T05:11:51;27.70;;;18.88;;
21777;SDS011;11050;52.222;20.916;2022-10-16T05:14:17;28.85;;;18.88;;
21777;SDS011;11050;52.222;20.916;2022-10-16T05:16:43;27.10;;;17.70;;
21777;SDS011;11050;52.222;20.916;2022-10-16T05:19:09;26.52;;;18.48;;
21777;SDS011;11050;52.222;20.916;2022-10-16T05:21:35;28.20;;;18.02;;
21777;SDS011;11050;52.222;20.916;2022-10-16T05:24:01;26.50;;;18.25;;
21777;SDS011;11050;52.222;20.916;2022-10-16T05:26:27;26.65;;;18.70;;
21777;SDS011;11050;52.222;20.916;2022-10-16T05:28:52;25.35;;;18.52;;
21777;SDS011;11050;52.222;20.916;2022-10-16T05:31:18;28.48;;;18.65;;
21777;SDS011;11050;52.222;20.916;2022-10-16T05:33:44;29.40;;;19.10;;
21777;SDS011;11050;52.222;20.916;2022-10-16T05:36:09;29.95;;;19.00;;
21777;SDS011;11050;52.222;20.916;2022-10-16T05:38:36;31.45;;;19.35;;
21777;SDS011;11050;52.222;20.916;2022-10-16T05:41:03;27.08;;;18.20;;
21777;SDS011;11050;52.222;20.916;2022-10-16T05:43:30;27.92;;;17.95;;
21777;SDS011;11050;52.222;20.916;2022-10-16T05:45:57;29.17;;;19.83;;
21777;SDS011;11050;52.222;20.916;2022-10-16T05:48:30;25.98;;;18.27;;
21777;SDS011;11050;52.222;20.916;2022-10-16T05:50:57;27.90;;;19.10;;
21777;SDS011;11050;52.222;20.916;2022-10-16T05:53:30;28.50;;;17.90;;
21777;SDS011;11050;52.222;20.916;2022-10-16T05:55:58;29.55;;;20.00;;
21777;SDS011;11050;52.222;20.916;2022-10-16T05:58:25;28.63;;;19.83;;
21777;SDS011;11050;52.222;20.916;2022-10-16T06:00:58;28.17;;;19.02;;
21777;SDS011;11050;52.222;20.916;2022-10-16T06:03:31;27.35;;;18.20;;
21777;SDS011;11050;52.222;20.916;2022-10-16T06:05:58;30.60;;;19.65;;
21777;SDS011;11050;52.222;20.916;2022-10-16T06:08:24;26.48;;;19.05;;
21777;SDS011;11050;52.222;20.916;2022-10-16T06:11:03;26.75;;;18.25;;
21777;SDS011;11050;52.222;20.916;2022-10-16T06:13:31;30.13;;;19.05;;
21777;SDS011;11050;52.222;20.916;2022-10-16T06:15:58;27.52;;;18.65;;
21777;SDS011;11050;52.222;20.916;2022-10-16T06:18:26;27.25;;;18.77;;
21777;SDS011;11050;52.222;20.916;2022-10-16T06:20:53;26.15;;;18.35;;
21777;SDS011;11050;52.222;20.916;2022-10-16T06:23:20;28.23;;;19.85;;
21777;SDS011;11050;52.222;20.916;2022-10-16T06:25:47;26.23;;;18.27;;
21777;SDS011;11050;52.222;20.916;2022-10-16T06:28:13;28.23;;;18.10;;
21777;SDS011;11050;52.222;20.916;2022-10-16T06:30:40;30.55;;;18.55;;
21777;SDS011;11050;52.222;20.916;2022-10-16T06:33:08;29.70;;;18.30;;
21777;SDS011;11050;52.222;20.916;2022-10-16T06:35:35;23.90;;;16.90;;
21777;SDS011;11050;52.222;20.916;2022-10-16T06:38:01;26.20;;;18.33;;
21777;SDS011;11050;52.222;20.916;2022-10-16T06:40:27;24.55;;;17.70;;
21777;SDS011;11050;52.222;20.916;2022-10-16T06:42:54;26.33;;;17.90;;
21777;SDS011;11050;52.222;20.916;2022-10-16T06:45:20;28.40;;;18.00;;
21777;SDS011;11050;52.222;20.916;2022-10-16T06:47:46;28.33;;;18.08;;
21777;SDS011;11050;52.222;20.916;2022-10-16T06:50:11;25.42;;;17.77;;
21777;SDS011;11050;52.222;20.916;2022-10-16T06:52:37;26.20;;;16.20;;
21777;SDS011;11050;52.222;20.916;2022-10-16T06:55:03;21.40;;;16.45;;
21777;SDS011;11050;52.222;20.916;2022-10-16T06:57:29;25.00;;;16.55;;
21777;SDS011;11050;52.222;20.916;2022-10-16T06:59:55;24.73;;;16.38;;
21777;SDS011;11050;52.222;20.916;2022-10-16T07:02:21;22.45;;;16.40;;
21777;SDS011;11050;52.222;20.916;2022-10-16T07:04:46;27.10;;;15.90;;
21777;SDS011;11050;52.222;20.916;2022-10-16T07:07:12;27.15;;;16.50;;
21777;SDS011;11050;52.222;20.916;2022-10-16T07:09:38;23.85;;;16.80;;
21777;SDS011;11050;52.222;20.916;2022-10-16T07:12:04;23.58;;;16.52;;
21777;SDS011;11050;52.222;20.916;2022-10-16T07:14:30;23.52;;;15.93;;
21777;SDS011;11050;52.222;20.916;2022-10-16T07:16:56;28.02;;;15.73;;
21777;SDS011;11050;52.222;20.916;2022-10-16T07:19:22;20.50;;;15.30;;
21777;SDS011;11050;52.222;20.916;2022-10-16T07:21:47;22.70;;;15.23;;
21777;SDS011;11050;52.222;20.916;2022-10-16T07:24:14;20.70;;;15.05;;
21777;SDS011;11050;52.222;20.916;2022-10-16T07:26:42;22.50;;;15.95;;
21777;SDS011;11050;52.222;20.916;2022-10-16T07:29:13;22.33;;;15.50;;
21777;SDS011;11050;52.222;20.916;2022-10-16T07:31:42;21.17;;;15.75;;
21777;SDS011;11050;52.222;20.916;2022-10-16T07:34:10;20.23;;;14.95;;
21777;SDS011;11050;52.222;20.916;2022-10-16T07:36:37;20.40;;;15.32;;
21777;SDS011;11050;52.222;20.916;2022-10-16T07:39:03;23.02;;;16.70;;
21777;SDS011;11050;52.222;20.916;2022-10-16T07:41:29;22.02;;;15.10;;
21777;SDS011;11050;52.222;20.916;2022-10-16T07:43:57;22.08;;;15.48;;
21777;SDS011;11050;52.222;20.916;2022-10-16T07:46:27;22.85;;;16.10;;
21777;SDS011;11050;52.222;20.916;2022-10-16T07:48:53;24.23;;;16.63;;
21777;SDS011;11050;52.222;20.916;2022-10-16T07:51:20;24.73;;;15.57;;
21777;SDS011;11050;52.222;20.916;2022-10-16T07:53:49;26.42;;;15.93;;
21777;SDS011;11050;52.222;20.916;2022-10-16T07:56:16;26.33;;;15.75;;
21777;SDS011;11050;52.222;20.916;2022-10-16T07:58:43;22.92;;;14.82;;
21777;SDS011;11050;52.222;20.916;2022-10-16T08:01:11;20.00;;;15.32;;
21777;SDS011;11050;52.222;20.916;2022-10-16T08:03:57;21.63;;;15.00;;
21777;SDS011;11050;52.222;20.916;2022-10-16T08:06:23;19.73;;;14.75;;
21777;SDS011;11050;52.222;20.916;2022-10-16T08:08:49;22.42;;;14.52;;
21777;SDS011;11050;52.222;20.916;2022-10-16T08:11:15;20.50;;;14.10;;
21777;SDS011;11050;52.222;20.916;2022-10-16T08:13:41;23.13;;;13.68;;
21777;SDS011;11050;52.222;20.916;2022-10-16T08:16:07;20.77;;;14.35;;
21777;SDS011;11050;52.222;20.916;2022-10-16T08:18:35;18.63;;;14.00;;
21777;SDS011;11050;52.222;20.916;2022-10-16T08:21:03;17.02;;;12.68;;
21777;SDS011;11050;52.222;20.916;2022-10-16T08:23:31;18.80;;;13.30;;
21777;SDS011;11050;52.222;20.916;2022-10-16T08:26:01;20.20;;;12.85;;
21777;SDS011;11050;52.222;20.916;2022-10-16T08:28:32;16.38;;;12.52;;
21777;SDS011;11050;52.222;20.916;2022-10-16T08:31:32;18.83;;;12.68;;
21777;SDS011;11050;52.222;20.916;2022-10-16T08:33:52;16.80;;;12.77;;
21777;SDS011;11050;52.222;20.916;2022-10-16T08:36:18;15.13;;;12.88;;
21777;SDS011;11050;52.222;20.916;2022-10-16T08:38:43;19.27;;;12.55;;
21777;SDS011;11050;52.222;20.916;2022-10-16T08:50:27;20.48;;;12.73;;
21777;SDS011;11050;52.222;20.916;2022-10-16T08:52:56;17.52;;;13.65;;
21777;SDS011;11050;52.222;20.916;2022-10-16T08:55:30;16.27;;;12.68;;
21777;SDS011;11050;52.222;20.916;2022-10-16T08:58:18;14.07;;;11.57;;
21777;SDS011;11050;52.222;20.916;2022-10-16T09:01:00;19.02;;;11.70;;
21777;SDS011;11050;52.222;20.916;2022-10-16T09:09:21;12.88;;;10.98;;
21777;SDS011;11050;52.222;20.916;2022-10-16T09:12:11;15.68;;;12.38;;
21777;SDS011;11050;52.222;20.916;2022-10-16T09:20:19;16.14;;;11.20;;
21777;SDS011;11050;52.222;20.916;2022-10-16T09:23:18;15.23;;;11.93;;
21777;SDS011;11050;52.222;20.916;2022-10-16T09:25:53;13.38;;;10.85;;
21777;SDS011;11050;52.222;20.916;2022-10-16T09:28:22;19.05;;;11.90;;
21777;SDS011;11050;52.222;20.916;2022-10-16T09:30:47;15.60;;;11.30;;
21777;SDS011;11050;52.222;20.916;2022-10-16T09:33:14;13.00;;;11.07;;
21777;SDS011;11050;52.222;20.916;2022-10-16T09:35:45;14.98;;;11.40;;
21777;SDS011;11050;52.222;20.916;2022-10-16T09:38:48;13.65;;;10.95;;
21777;SDS011;11050;52.222;20.916;2022-10-16T09:46:30;13.80;;;11.75;;
21777;SDS011;11050;52.222;20.916;2022-10-16T09:49:05;13.35;;;10.48;;
21777;SDS011;11050;52.222;20.916;2022-10-16T09:51:50;13.52;;;10.45;;
21777;SDS011;11050;52.222;20.916;2022-10-16T09:54:28;13.23;;;11.18;;
21777;SDS011;11050;52.222;20.916;2022-10-16T09:57:03;14.15;;;11.35;;
21777;SDS011;11050;52.222;20.916;2022-10-16T09:59:45;13.63;;;10.95;;
21777;SDS011;11050;52.222;20.916;2022-10-16T10:02:14;16.05;;;12.30;;
21777;SDS011;11050;52.222;20.916;2022-10-16T10:04:50;14.98;;;10.82;;
21777;SDS011;11050;52.222;20.916;2022-10-16T10:07:31;12.80;;;10.85;;
21777;SDS011;11050;52.222;20.916;2022-10-16T10:10:04;13.27;;;11.45;;
21777;SDS011;11050;52.222;20.916;2022-10-16T10:12:44;13.15;;;11.23;;
21777;SDS011;11050;52.222;20.916;2022-10-16T10:15:11;15.30;;;11.75;;
21777;SDS011;11050;52.222;20.916;2022-10-16T10:17:45;11.85;;;10.32;;
21777;SDS011;11050;52.222;20.916;2022-10-16T10:20:24;12.35;;;10.98;;
21777;SDS011;11050;52.222;20.916;2022-10-16T10:22:53;15.52;;;11.20;;
21777;SDS011;11050;52.222;20.916;2022-10-16T10:31:27;14.52;;;12.15;;
21777;SDS011;11050;52.222;20.916;2022-10-16T10:36:38;14.30;;;11.55;;
21777;SDS011;11050;52.222;20.916;2022-10-16T10:39:08;16.00;;;11.57;;
21777;SDS011;11050;52.222;20.916;2022-10-16T10:45:15;14.80;;;11.55;;
21777;SDS011;11050;52.222;20.916;2022-10-16T11:02:10;15.60;;;11.98;;
21777;SDS011;11050;52.222;20.916;2022-10-16T11:08:03;13.82;;;11.50;;
21777;SDS011;11050;52.222;20.916;2022-10-16T11:13:35;11.55;;;10.13;;
21777;SDS011;11050;52.222;20.916;2022-10-16T11:19:25;14.35;;;10.93;;
21777;SDS011;11050;52.222;20.916;2022-10-16T11:24:44;14.52;;;11.73;;
21777;SDS011;11050;52.222;20.916;2022-10-16T11:27:19;13.82;;;11.13;;
21777;SDS011;11050;52.222;20.916;2022-10-16T11:30:06;13.20;;;10.90;;
21777;SDS011;11050;52.222;20.916;2022-10-16T11:41:39;14.55;;;10.95;;
21777;SDS011;11050;52.222;20.916;2022-10-16T11:44:33;13.82;;;10.43;;
21777;SDS011;11050;52.222;20.916;2022-10-16T11:49:52;10.50;;;9.32;;
21777;SDS011;11050;52.222;20.916;2022-10-16T11:52:28;16.20;;;9.80;;
21777;SDS011;11050;52.222;20.916;2022-10-16T11:58:20;11.75;;;10.25;;
21777;SDS011;11050;52.222;20.916;2022-10-16T12:03:35;12.50;;;10.23;;
21777;SDS011;11050;52.222;20.916;2022-10-16T12:06:22;12.10;;;10.23;;
21777;SDS011;11050;52.222;20.916;2022-10-16T12:09:02;13.25;;;10.77;;
21777;SDS011;11050;52.222;20.916;2022-10-16T12:14:04;12.70;;;11.15;;
21777;SDS011;11050;52.222;20.916;2022-10-16T12:16:36;15.30;;;10.95;;
21777;SDS011;11050;52.222;20.916;2022-10-16T12:19:43;11.60;;;9.48;;
21777;SDS011;11050;52.222;20.916;2022-10-16T12:22:15;12.57;;;9.60;;
21777;SDS011;11050;52.222;20.916;2022-10-16T12:24:43;12.48;;;9.95;;
21777;SDS011;11050;52.222;20.916;2022-10-16T12:30:05;11.18;;;8.80;;
21777;SDS011;11050;52.222;20.916;2022-10-16T12:32:33;13.23;;;9.48;;
21777;SDS011;11050;52.222;20.916;2022-10-16T12:35:05;11.70;;;9.15;;
21777;SDS011;11050;52.222;20.916;2022-10-16T12:37:50;10.65;;;8.95;;
21777;SDS011;11050;52.222;20.916;2022-10-16T12:40:27;13.73;;;9.70;;
21777;SDS011;11050;52.222;20.916;2022-10-16T12:42:57;14.38;;;10.10;;
21777;SDS011;11050;52.222;20.916;2022-10-16T12:47:53;18.88;;;10.68;;
21777;SDS011;11050;52.222;20.916;2022-10-16T12:52:59;15.05;;;10.57;;
21777;SDS011;11050;52.222;20.916;2022-10-16T12:55:27;14.07;;;10.77;;
21777;SDS011;11050;52.222;20.916;2022-10-16T13:00:45;15.00;;;11.00;;
21777;SDS011;11050;52.222;20.916;2022-10-16T13:06:59;13.70;;;10.32;;
21777;SDS011;11050;52.222;20.916;2022-10-16T13:10:34;16.90;;;11.43;;
21777;SDS011;11050;52.222;20.916;2022-10-16T13:22:05;14.57;;;10.38;;
21777;SDS011;11050;52.222;20.916;2022-10-16T13:35:53;14.47;;;10.56;;
21777;SDS011;11050;52.222;20.916;2022-10-16T13:38:23;12.98;;;9.70;;
21777;SDS011;11050;52.222;20.916;2022-10-16T13:41:05;10.45;;;8.95;;
21777;SDS011;11050;52.222;20.916;2022-10-16T13:43:45;16.60;;;9.80;;
21777;SDS011;11050;52.222;20.916;2022-10-16T13:48:44;12.13;;;9.82;;
21777;SDS011;11050;52.222;20.916;2022-10-16T13:51:22;14.48;;;10.27;;
21777;SDS011;11050;52.222;20.916;2022-10-16T13:53:48;17.33;;;10.48;;
21777;SDS011;11050;52.222;20.916;2022-10-16T13:56:15;12.52;;;9.30;;
21777;SDS011;11050;52.222;20.916;2022-10-16T13:58:45;13.32;;;9.88;;
21777;SDS011;11050;52.222;20.916;2022-10-16T14:01:23;13.13;;;9.93;;
21777;SDS011;11050;52.222;20.916;2022-10-16T14:04:04;17.55;;;10.88;;
21777;SDS011;11050;52.222;20.916;2022-10-16T14:06:33;16.73;;;10.85;;
21777;SDS011;11050;52.222;20.916;2022-10-16T14:09:05;12.63;;;9.65;;
21777;SDS011;11050;52.222;20.916;2022-10-16T14:11:46;14.32;;;9.70;;
21777;SDS011;11050;52.222;20.916;2022-10-16T14:14:16;14.25;;;10.05;;
21777;SDS011;11050;52.222;20.916;2022-10-16T14:16:44;13.90;;;10.43;;
21777;SDS011;11050;52.222;20.916;2022-10-16T14:21:52;12.65;;;10.32;;
21777;SDS011;11050;52.222;20.916;2022-10-16T14:24:27;16.45;;;10.90;;
21777;SDS011;11050;52.222;20.916;2022-10-16T14:27:00;11.70;;;9.50;;
21777;SDS011;11050;52.222;20.916;2022-10-16T14:29:28;16.52;;;10.13;;
21777;SDS011;11050;52.222;20.916;2022-10-16T14:32:03;18.25;;;10.45;;
21777;SDS011;11050;52.222;20.916;2022-10-16T14:34:31;13.77;;;10.32;;
21777;SDS011;11050;52.222;20.916;2022-10-16T14:37:05;14.35;;;10.00;;
21777;SDS011;11050;52.222;20.916;2022-10-16T14:39:48;16.15;;;10.38;;
21777;SDS011;11050;52.222;20.916;2022-10-16T14:42:19;13.43;;;10.45;;
21777;SDS011;11050;52.222;20.916;2022-10-16T14:44:50;17.33;;;11.90;;
21777;SDS011;11050;52.222;20.916;2022-10-16T14:47:21;17.85;;;11.27;;
21777;SDS011;11050;52.222;20.916;2022-10-16T14:49:51;15.80;;;10.07;;
21777;SDS011;11050;52.222;20.916;2022-10-16T14:52:23;16.48;;;10.43;;
21777;SDS011;11050;52.222;20.916;2022-10-16T14:54:50;16.65;;;11.60;;
21777;SDS011;11050;52.222;20.916;2022-10-16T14:57:20;17.35;;;11.20;;
21777;SDS011;11050;52.222;20.916;2022-10-16T14:59:49;16.60;;;10.80;;
21777;SDS011;11050;52.222;20.916;2022-10-16T15:04:54;17.13;;;11.65;;
21777;SDS011;11050;52.222;20.916;2022-10-16T15:07:21;17.60;;;11.45;;
21777;SDS011;11050;52.222;20.916;2022-10-16T15:09:48;16.48;;;11.98;;
21777;SDS011;11050;52.222;20.916;2022-10-16T15:12:14;17.25;;;11.48;;
21777;SDS011;11050;52.222;20.916;2022-10-16T15:14:40;16.05;;;12.02;;
21777;SDS011;11050;52.222;20.916;2022-10-16T15:17:08;15.98;;;11.18;;
21777;SDS011;11050;52.222;20.916;2022-10-16T15:19:36;15.30;;;11.30;;
21777;SDS011;11050;52.222;20.916;2022-10-16T15:22:01;18.50;;;11.45;;
21777;SDS011;11050;52.222;20.916;2022-10-16T15:24:27;17.55;;;11.48;;
21777;SDS011;11050;52.222;20.916;2022-10-16T15:26:53;17.30;;;11.52;;
21777;SDS011;11050;52.222;20.916;2022-10-16T15:29:19;16.98;;;11.80;;
21777;SDS011;11050;52.222;20.916;2022-10-16T15:31:44;16.52;;;11.63;;
21777;SDS011;11050;52.222;20.916;2022-10-16T15:34:12;19.80;;;11.85;;
21777;SDS011;11050;52.222;20.916;2022-10-16T15:36:39;16.73;;;11.30;;
21777;SDS011;11050;52.222;20.916;2022-10-16T15:39:08;17.23;;;12.80;;
21777;SDS011;11050;52.222;20.916;2022-10-16T15:41:42;16.60;;;12.57;;
21777;SDS011;11050;52.222;20.916;2022-10-16T15:44:15;17.25;;;11.85;;
21777;SDS011;11050;52.222;20.916;2022-10-16T15:46:45;15.07;;;12.23;;
21777;SDS011;11050;52.222;20.916;2022-10-16T15:49:12;16.90;;;12.63;;
21777;SDS011;11050;52.222;20.916;2022-10-16T15:51:38;19.52;;;12.48;;
21777;SDS011;11050;52.222;20.916;2022-10-16T15:54:07;21.33;;;12.90;;
21777;SDS011;11050;52.222;20.916;2022-10-16T15:56:33;19.15;;;13.32;;
21777;SDS011;11050;52.222;20.916;2022-10-16T15:59:01;18.65;;;12.88;;
21777;SDS011;11050;52.222;20.916;2022-10-16T16:01:28;18.42;;;12.63;;
21777;SDS011;11050;52.222;20.916;2022-10-16T16:03:57;19.95;;;14.07;;
21777;SDS011;11050;52.222;20.916;2022-10-16T16:06:23;18.05;;;13.82;;
21777;SDS011;11050;52.222;20.916;2022-10-16T16:08:49;19.27;;;13.82;;
21777;SDS011;11050;52.222;20.916;2022-10-16T16:11:16;22.60;;;14.60;;
21777;SDS011;11050;52.222;20.916;2022-10-16T16:13:44;21.75;;;14.55;;
21777;SDS011;11050;52.222;20.916;2022-10-16T16:16:13;21.35;;;14.32;;
21777;SDS011;11050;52.222;20.916;2022-10-16T16:18:42;20.70;;;14.10;;
21777;SDS011;11050;52.222;20.916;2022-10-16T16:21:12;20.02;;;13.55;;
21777;SDS011;11050;52.222;20.916;2022-10-16T16:23:38;20.98;;;14.55;;
21777;SDS011;11050;52.222;20.916;2022-10-16T16:28:39;21.60;;;15.10;;
21777;SDS011;11050;52.222;20.916;2022-10-16T16:31:06;23.38;;;14.65;;
21777;SDS011;11050;52.222;20.916;2022-10-16T16:33:32;17.08;;;13.68;;
21777;SDS011;11050;52.222;20.916;2022-10-16T16:35:59;18.60;;;14.02;;
21777;SDS011;11050;52.222;20.916;2022-10-16T16:38:29;21.85;;;14.32;;
21777;SDS011;11050;52.222;20.916;2022-10-16T16:40:56;18.02;;;13.93;;
21777;SDS011;11050;52.222;20.916;2022-10-16T16:43:23;19.27;;;14.40;;
21777;SDS011;11050;52.222;20.916;2022-10-16T16:45:51;21.88;;;13.85;;
21777;SDS011;11050;52.222;20.916;2022-10-16T16:48:17;17.80;;;13.65;;
21777;SDS011;11050;52.222;20.916;2022-10-16T16:50:44;21.13;;;14.48;;
21777;SDS011;11050;52.222;20.916;2022-10-16T16:53:09;22.48;;;14.05;;
21777;SDS011;11050;52.222;20.916;2022-10-16T16:55:35;19.75;;;13.90;;
21777;SDS011;11050;52.222;20.916;2022-10-16T16:58:01;16.73;;;12.88;;
21777;SDS011;11050;52.222;20.916;2022-10-16T17:00:28;20.88;;;13.90;;